sensor_id;sensor_type;location;lat;lon;timestamp;P1;P2;P0
47591;PMS5003;33317;33.356;-117.184;2022-08-18T00:00:31;1;1;
47591;PMS5003;33317;33.356;-117.184;2022-08-18T00:03:07;1;1;
47591;PMS5003;33317;33.356;-117.184;2022-08-18T00:05:36;1;1;
47591;PMS5003;33317;33.356;-117.184;2022-08-18T00:08:06;1;1;
47591;PMS5003;33317;33.356;-117.184;2022-08-18T00:10:35;2;2;
47591;PMS5003;33317;33.356;-117.184;2022-08-18T00:13:09;1;1;
47591;PMS5003;33317;33.356;-117.184;2022-08-18T00:15:37;1;1;
47591;PMS5003;33317;33.356;-117.184;2022-08-18T00:18:11;1;1;
47591;PMS5003;33317;33.356;-117.184;2022-08-18T00:20:40;1;1;
47591;PMS5003;33317;33.356;-117.184;2022-08-18T00:23:08;1;1;
47591;PMS5003;33317;33.356;-117.184;2022-08-18T00:25:37;1;1;
47591;PMS5003;33317;33.356;-117.184;2022-08-18T00:28:06;1;1;
47591;PMS5003;33317;33.356;-117.184;2022-08-18T00:30:34;1;1;
47591;PMS5003;33317;33.356;-117.184;2022-08-18T00:33:03;1;1;
47591;PMS5003;33317;33.356;-117.184;2022-08-18T00:35:32;1;1;
47591;PMS5003;33317;33.356;-117.184;2022-08-18T00:38:04;1;1;
47591;PMS5003;33317;33.356;-117.184;2022-08-18T00:40:37;1;1;
47591;PMS5003;33317;33.356;-117.184;2022-08-18T00:43:11;0;0;
47591;PMS5003;33317;33.356;-117.184;2022-08-18T00:45:41;1;1;
47591;PMS5003;33317;33.356;-117.184;2022-08-18T00:48:15;0;0;
47591;PMS5003;33317;33.356;-117.184;2022-08-18T00:50:46;1;1;
47591;PMS5003;33317;33.356;-117.184;2022-08-18T00:53:20;0;0;
47591;PMS5003;33317;33.356;-117.184;2022-08-18T00:55:52;0;0;
47591;PMS5003;33317;33.356;-117.184;2022-08-18T00:58:24;0;0;
47591;PMS5003;33317;33.356;-117.184;2022-08-18T01:01:05;2;1;
47591;PMS5003;33317;33.356;-117.184;2022-08-18T01:03:35;0;0;
47591;PMS5003;33317;33.356;-117.184;2022-08-18T01:06:10;1;1;
47591;PMS5003;33317;33.356;-117.184;2022-08-18T01:08:41;1;1;
47591;PMS5003;33317;33.356;-117.184;2022-08-18T01:11:11;0;0;
47591;PMS5003;33317;33.356;-117.184;2022-08-18T01:13:40;0;0;
47591;PMS5003;33317;33.356;-117.184;2022-08-18T01:16:11;1;1;
47591;PMS5003;33317;33.356;-117.184;2022-08-18T01:18:39;0;0;
47591;PMS5003;33317;33.356;-117.184;2022-08-18T01:21:09;1;1;
47591;PMS5003;33317;33.356;-117.184;2022-08-18T01:23:44;0;0;
47591;PMS5003;33317;33.356;-117.184;2022-08-18T01:26:18;0;0;
47591;PMS5003;33317;33.356;-117.184;2022-08-18T01:28:53;0;0;
47591;PMS5003;33317;33.356;-117.184;2022-08-18T01:31:32;0;0;
47591;PMS5003;33317;33.356;-117.184;2022-08-18T01:34:03;0;0;
47591;PMS5003;33317;33.356;-117.184;2022-08-18T01:36:33;0;0;
47591;PMS5003;33317;33.356;-117.184;2022-08-18T01:39:07;1;0;
47591;PMS5003;33317;33.356;-117.184;2022-08-18T01:41:42;0;0;
47591;PMS5003;33317;33.356;-117.184;2022-08-18T01:44:11;1;1;
47591;PMS5003;33317;33.356;-117.184;2022-08-18T01:46:40;2;1;
47591;PMS5003;33317;33.356;-117.184;2022-08-18T01:49:09;1;1;
47591;PMS5003;33317;33.356;-117.184;2022-08-18T01:51:43;0;0;
47591;PMS5003;33317;33.356;-117.184;2022-08-18T01:54:13;1;1;
47591;PMS5003;33317;33.356;-117.184;2022-08-18T01:56:42;0;0;
47591;PMS5003;33317;33.356;-117.184;2022-08-18T01:59:10;1;1;
47591;PMS5003;33317;33.356;-117.184;2022-08-18T02:01:40;1;1;
47591;PMS5003;33317;33.356;-117.184;2022-08-18T02:04:12;1;1;
47591;PMS5003;33317;33.356;-117.184;2022-08-18T02:06:43;1;1;
47591;PMS5003;33317;33.356;-117.184;2022-08-18T02:09:12;0;0;
47591;PMS5003;33317;33.356;-117.184;2022-08-18T02:11:41;1;1;
47591;PMS5003;33317;33.356;-117.184;2022-08-18T02:14:09;1;1;
47591;PMS5003;33317;33.356;-117.184;2022-08-18T02:16:42;0;0;
47591;PMS5003;33317;33.356;-117.184;2022-08-18T02:19:11;1;1;
47591;PMS5003;33317;33.356;-117.184;2022-08-18T02:21:39;1;1;
47591;PMS5003;33317;33.356;-117.184;2022-08-18T02:24:08;1;0;
47591;PMS5003;33317;33.356;-117.184;2022-08-18T02:26:36;0;0;
47591;PMS5003;33317;33.356;-117.184;2022-08-18T02:29:05;1;1;
47591;PMS5003;33317;33.356;-117.184;2022-08-18T02:31:33;2;2;
47591;PMS5003;33317;33.356;-117.184;2022-08-18T02:34:02;0;0;
47591;PMS5003;33317;33.356;-117.184;2022-08-18T02:36:30;1;1;
47591;PMS5003;33317;33.356;-117.184;2022-08-18T02:38:59;1;1;
47591;PMS5003;33317;33.356;-117.184;2022-08-18T02:41:27;1;1;
47591;PMS5003;33317;33.356;-117.184;2022-08-18T02:43:56;1;1;
47591;PMS5003;33317;33.356;-117.184;2022-08-18T02:46:30;1;1;
47591;PMS5003;33317;33.356;-117.184;2022-08-18T02:48:58;3;2;
47591;PMS5003;33317;33.356;-117.184;2022-08-18T02:51:28;1;1;
47591;PMS5003;33317;33.356;-117.184;2022-08-18T02:53:56;0;0;
47591;PMS5003;33317;33.356;-117.184;2022-08-18T02:56:31;1;1;
47591;PMS5003;33317;33.356;-117.184;2022-08-18T02:59:02;1;1;
47591;PMS5003;33317;33.356;-117.184;2022-08-18T03:01:34;2;2;
47591;PMS5003;33317;33.356;-117.184;2022-08-18T03:04:18;0;0;
47591;PMS5003;33317;33.356;-117.184;2022-08-18T03:06:50;1;1;
47591;PMS5003;33317;33.356;-117.184;2022-08-18T03:09:19;1;1;
47591;PMS5003;33317;33.356;-117.184;2022-08-18T03:11:48;0;0;
47591;PMS5003;33317;33.356;-117.184;2022-08-18T03:14:17;0;0;
47591;PMS5003;33317;33.356;-117.184;2022-08-18T03:16:49;0;0;
47591;PMS5003;33317;33.356;-117.184;2022-08-18T03:19:54;0;0;
47591;PMS5003;33317;33.356;-117.184;2022-08-18T03:23:12;1;1;
47591;PMS5003;33317;33.356;-117.184;2022-08-18T03:25:43;0;0;
47591;PMS5003;33317;33.356;-117.184;2022-08-18T03:28:17;0;0;
47591;PMS5003;33317;33.356;-117.184;2022-08-18T03:30:46;1;1;
47591;PMS5003;33317;33.356;-117.184;2022-08-18T03:33:16;0;0;
47591;PMS5003;33317;33.356;-117.184;2022-08-18T03:35:50;1;1;
47591;PMS5003;33317;33.356;-117.184;2022-08-18T03:38:19;0;0;
47591;PMS5003;33317;33.356;-117.184;2022-08-18T03:40:57;1;1;
47591;PMS5003;33317;33.356;-117.184;2022-08-18T03:43:26;0;0;
47591;PMS5003;33317;33.356;-117.184;2022-08-18T03:46:05;1;1;
47591;PMS5003;33317;33.356;-117.184;2022-08-18T03:48:50;0;0;
47591;PMS5003;33317;33.356;-117.184;2022-08-18T03:51:28;1;1;
47591;PMS5003;33317;33.356;-117.184;2022-08-18T03:54:01;0;0;
47591;PMS5003;33317;33.356;-117.184;2022-08-18T03:56:42;0;0;
47591;PMS5003;33317;33.356;-117.184;2022-08-18T03:59:17;1;0;
47591;PMS5003;33317;33.356;-117.184;2022-08-18T04:01:53;2;2;
47591;PMS5003;33317;33.356;-117.184;2022-08-18T04:04:24;2;2;
47591;PMS5003;33317;33.356;-117.184;2022-08-18T04:06:57;1;1;
47591;PMS5003;33317;33.356;-117.184;2022-08-18T04:09:28;0;0;
47591;PMS5003;33317;33.356;-117.184;2022-08-18T04:12:06;0;0;
47591;PMS5003;33317;33.356;-117.184;2022-08-18T04:14:37;3;1;
47591;PMS5003;33317;33.356;-117.184;2022-08-18T04:17:08;0;0;
47591;PMS5003;33317;33.356;-117.184;2022-08-18T04:19:36;0;0;
47591;PMS5003;33317;33.356;-117.184;2022-08-18T04:22:06;1;1;
47591;PMS5003;33317;33.356;-117.184;2022-08-18T04:24:39;1;1;
47591;PMS5003;33317;33.356;-117.184;2022-08-18T04:27:13;0;0;
47591;PMS5003;33317;33.356;-117.184;2022-08-18T04:29:46;1;1;
47591;PMS5003;33317;33.356;-117.184;2022-08-18T04:32:15;1;1;
47591;PMS5003;33317;33.356;-117.184;2022-08-18T04:34:45;3;2;
47591;PMS5003;33317;33.356;-117.184;2022-08-18T04:37:14;0;0;
47591;PMS5003;33317;33.356;-117.184;2022-08-18T04:39:44;0;0;
47591;PMS5003;33317;33.356;-117.184;2022-08-18T04:42:13;1;1;
47591;PMS5003;33317;33.356;-117.184;2022-08-18T04:44:46;1;1;
47591;PMS5003;33317;33.356;-117.184;2022-08-18T04:47:14;0;0;
47591;PMS5003;33317;33.356;-117.184;2022-08-18T04:49:49;0;0;
47591;PMS5003;33317;33.356;-117.184;2022-08-18T04:52:18;1;1;
47591;PMS5003;33317;33.356;-117.184;2022-08-18T04:54:46;1;1;
47591;PMS5003;33317;33.356;-117.184;2022-08-18T04:57:16;0;0;
47591;PMS5003;33317;33.356;-117.184;2022-08-18T04:59:47;1;1;
47591;PMS5003;33317;33.356;-117.184;2022-08-18T05:02:18;0;0;
47591;PMS5003;33317;33.356;-117.184;2022-08-18T05:04:48;0;0;
47591;PMS5003;33317;33.356;-117.184;2022-08-18T05:07:18;1;1;
47591;PMS5003;33317;33.356;-117.184;2022-08-18T05:09:47;3;2;
47591;PMS5003;33317;33.356;-117.184;2022-08-18T05:12:22;1;1;
47591;PMS5003;33317;33.356;-117.184;2022-08-18T05:14:51;1;1;
47591;PMS5003;33317;33.356;-117.184;2022-08-18T05:17:25;1;1;
47591;PMS5003;33317;33.356;-117.184;2022-08-18T05:19:59;1;1;
47591;PMS5003;33317;33.356;-117.184;2022-08-18T05:22:28;1;1;
47591;PMS5003;33317;33.356;-117.184;2022-08-18T05:25:02;1;1;
47591;PMS5003;33317;33.356;-117.184;2022-08-18T05:27:31;1;1;
47591;PMS5003;33317;33.356;-117.184;2022-08-18T05:30:02;0;0;
47591;PMS5003;33317;33.356;-117.184;2022-08-18T05:32:38;2;2;
47591;PMS5003;33317;33.356;-117.184;2022-08-18T05:35:14;2;2;
47591;PMS5003;33317;33.356;-117.184;2022-08-18T05:37:52;1;1;
47591;PMS5003;33317;33.356;-117.184;2022-08-18T05:40:33;2;2;
47591;PMS5003;33317;33.356;-117.184;2022-08-18T05:43:02;2;2;
47591;PMS5003;33317;33.356;-117.184;2022-08-18T05:45:32;2;1;
47591;PMS5003;33317;33.356;-117.184;2022-08-18T05:48:01;1;1;
47591;PMS5003;33317;33.356;-117.184;2022-08-18T05:50:31;1;1;
47591;PMS5003;33317;33.356;-117.184;2022-08-18T05:53:05;2;2;
47591;PMS5003;33317;33.356;-117.184;2022-08-18T05:55:37;1;1;
47591;PMS5003;33317;33.356;-117.184;2022-08-18T05:58:11;2;2;
47591;PMS5003;33317;33.356;-117.184;2022-08-18T06:00:45;2;2;
47591;PMS5003;33317;33.356;-117.184;2022-08-18T06:03:24;1;1;
47591;PMS5003;33317;33.356;-117.184;2022-08-18T06:05:59;2;2;
47591;PMS5003;33317;33.356;-117.184;2022-08-18T06:08:35;2;2;
47591;PMS5003;33317;33.356;-117.184;2022-08-18T06:11:09;3;3;
47591;PMS5003;33317;33.356;-117.184;2022-08-18T06:13:38;2;2;
47591;PMS5003;33317;33.356;-117.184;2022-08-18T06:16:11;3;3;
47591;PMS5003;33317;33.356;-117.184;2022-08-18T06:18:48;4;4;
47591;PMS5003;33317;33.356;-117.184;2022-08-18T06:21:30;2;2;
47591;PMS5003;33317;33.356;-117.184;2022-08-18T06:24:12;3;3;
47591;PMS5003;33317;33.356;-117.184;2022-08-18T06:26:53;3;3;
47591;PMS5003;33317;33.356;-117.184;2022-08-18T06:29:34;4;1;
47591;PMS5003;33317;33.356;-117.184;2022-08-18T06:32:13;1;1;
47591;PMS5003;33317;33.356;-117.184;2022-08-18T06:34:56;3;3;
47591;PMS5003;33317;33.356;-117.184;2022-08-18T06:37:38;2;2;
47591;PMS5003;33317;33.356;-117.184;2022-08-18T06:40:15;3;3;
47591;PMS5003;33317;33.356;-117.184;2022-08-18T06:42:44;3;3;
47591;PMS5003;33317;33.356;-117.184;2022-08-18T06:45:14;5;3;
47591;PMS5003;33317;33.356;-117.184;2022-08-18T06:47:46;5;5;
47591;PMS5003;33317;33.356;-117.184;2022-08-18T06:50:21;3;3;
47591;PMS5003;33317;33.356;-117.184;2022-08-18T06:52:54;3;3;
47591;PMS5003;33317;33.356;-117.184;2022-08-18T06:55:31;2;2;
47591;PMS5003;33317;33.356;-117.184;2022-08-18T06:58:03;7;5;
47591;PMS5003;33317;33.356;-117.184;2022-08-18T07:00:34;6;4;
47591;PMS5003;33317;33.356;-117.184;2022-08-18T07:03:05;2;2;
47591;PMS5003;33317;33.356;-117.184;2022-08-18T07:05:55;2;2;
47591;PMS5003;33317;33.356;-117.184;2022-08-18T07:08:28;2;2;
47591;PMS5003;33317;33.356;-117.184;2022-08-18T07:11:10;4;4;
47591;PMS5003;33317;33.356;-117.184;2022-08-18T07:13:41;4;4;
47591;PMS5003;33317;33.356;-117.184;2022-08-18T07:16:19;4;4;
47591;PMS5003;33317;33.356;-117.184;2022-08-18T07:18:51;4;4;
47591;PMS5003;33317;33.356;-117.184;2022-08-18T07:21:23;2;2;
47591;PMS5003;33317;33.356;-117.184;2022-08-18T07:23:57;4;4;
47591;PMS5003;33317;33.356;-117.184;2022-08-18T07:26:28;1;1;
47591;PMS5003;33317;33.356;-117.184;2022-08-18T07:28:56;2;2;
47591;PMS5003;33317;33.356;-117.184;2022-08-18T07:31:41;1;1;
47591;PMS5003;33317;33.356;-117.184;2022-08-18T07:34:15;4;3;
47591;PMS5003;33317;33.356;-117.184;2022-08-18T07:36:49;2;2;
47591;PMS5003;33317;33.356;-117.184;2022-08-18T07:39:24;3;3;
47591;PMS5003;33317;33.356;-117.184;2022-08-18T07:41:57;2;2;
47591;PMS5003;33317;33.356;-117.184;2022-08-18T07:44:39;2;2;
47591;PMS5003;33317;33.356;-117.184;2022-08-18T07:47:15;3;3;
47591;PMS5003;33317;33.356;-117.184;2022-08-18T07:49:49;1;1;
47591;PMS5003;33317;33.356;-117.184;2022-08-18T07:52:19;3;3;
47591;PMS5003;33317;33.356;-117.184;2022-08-18T07:54:53;3;3;
47591;PMS5003;33317;33.356;-117.184;2022-08-18T07:57:36;3;3;
47591;PMS5003;33317;33.356;-117.184;2022-08-18T08:00:13;3;3;
47591;PMS5003;33317;33.356;-117.184;2022-08-18T08:02:48;3;3;
47591;PMS5003;33317;33.356;-117.184;2022-08-18T08:05:33;3;3;
47591;PMS5003;33317;33.356;-117.184;2022-08-18T08:08:11;3;3;
47591;PMS5003;33317;33.356;-117.184;2022-08-18T08:10:47;5;5;
47591;PMS5003;33317;33.356;-117.184;2022-08-18T08:13:25;3;3;
47591;PMS5003;33317;33.356;-117.184;2022-08-18T08:16:08;1;1;
47591;PMS5003;33317;33.356;-117.184;2022-08-18T08:21:36;3;3;
47591;PMS5003;33317;33.356;-117.184;2022-08-18T08:24:12;3;3;
47591;PMS5003;33317;33.356;-117.184;2022-08-18T08:26:48;2;2;
47591;PMS5003;33317;33.356;-117.184;2022-08-18T08:29:26;5;3;
47591;PMS5003;33317;33.356;-117.184;2022-08-18T08:32:02;2;2;
47591;PMS5003;33317;33.356;-117.184;2022-08-18T08:34:37;1;1;
47591;PMS5003;33317;33.356;-117.184;2022-08-18T08:37:12;2;2;
47591;PMS5003;33317;33.356;-117.184;2022-08-18T08:39:44;3;3;
47591;PMS5003;33317;33.356;-117.184;2022-08-18T08:42:18;1;1;
47591;PMS5003;33317;33.356;-117.184;2022-08-18T08:44:53;2;2;
47591;PMS5003;33317;33.356;-117.184;2022-08-18T08:47:24;2;2;
47591;PMS5003;33317;33.356;-117.184;2022-08-18T08:49:57;3;3;
47591;PMS5003;33317;33.356;-117.184;2022-08-18T08:52:32;2;2;
47591;PMS5003;33317;33.356;-117.184;2022-08-18T08:55:05;4;4;
47591;PMS5003;33317;33.356;-117.184;2022-08-18T08:57:38;4;4;
47591;PMS5003;33317;33.356;-117.184;2022-08-18T09:00:11;2;2;
47591;PMS5003;33317;33.356;-117.184;2022-08-18T09:02:50;3;2;
47591;PMS5003;33317;33.356;-117.184;2022-08-18T09:05:28;2;2;
47591;PMS5003;33317;33.356;-117.184;2022-08-18T09:08:10;3;3;
47591;PMS5003;33317;33.356;-117.184;2022-08-18T09:11:04;3;3;
47591;PMS5003;33317;33.356;-117.184;2022-08-18T09:13:56;4;4;
47591;PMS5003;33317;33.356;-117.184;2022-08-18T09:16:44;5;4;
47591;PMS5003;33317;33.356;-117.184;2022-08-18T09:19:33;2;2;
47591;PMS5003;33317;33.356;-117.184;2022-08-18T09:22:16;2;2;
47591;PMS5003;33317;33.356;-117.184;2022-08-18T09:24:55;4;3;
47591;PMS5003;33317;33.356;-117.184;2022-08-18T09:27:35;2;2;
47591;PMS5003;33317;33.356;-117.184;2022-08-18T09:30:07;1;1;
47591;PMS5003;33317;33.356;-117.184;2022-08-18T09:33:12;3;3;
47591;PMS5003;33317;33.356;-117.184;2022-08-18T09:35:57;4;4;
47591;PMS5003;33317;33.356;-117.184;2022-08-18T09:38:37;2;2;
47591;PMS5003;33317;33.356;-117.184;2022-08-18T09:41:17;3;2;
47591;PMS5003;33317;33.356;-117.184;2022-08-18T09:43:53;2;2;
47591;PMS5003;33317;33.356;-117.184;2022-08-18T09:46:49;2;2;
47591;PMS5003;33317;33.356;-117.184;2022-08-18T09:49:41;3;3;
47591;PMS5003;33317;33.356;-117.184;2022-08-18T09:52:46;3;3;
47591;PMS5003;33317;33.356;-117.184;2022-08-18T09:55:54;3;3;
47591;PMS5003;33317;33.356;-117.184;2022-08-18T09:58:46;3;3;
47591;PMS5003;33317;33.356;-117.184;2022-08-18T10:01:21;4;3;
47591;PMS5003;33317;33.356;-117.184;2022-08-18T10:04:33;5;5;
47591;PMS5003;33317;33.356;-117.184;2022-08-18T10:07:20;2;2;
47591;PMS5003;33317;33.356;-117.184;2022-08-18T10:10:07;2;2;
47591;PMS5003;33317;33.356;-117.184;2022-08-18T10:12:50;4;3;
47591;PMS5003;33317;33.356;-117.184;2022-08-18T10:15:34;3;3;
47591;PMS5003;33317;33.356;-117.184;2022-08-18T10:18:13;3;3;
47591;PMS5003;33317;33.356;-117.184;2022-08-18T10:20:59;2;2;
47591;PMS5003;33317;33.356;-117.184;2022-08-18T10:23:45;2;2;
47591;PMS5003;33317;33.356;-117.184;2022-08-18T10:27:45;4;4;
47591;PMS5003;33317;33.356;-117.184;2022-08-18T10:31:21;3;3;
47591;PMS5003;33317;33.356;-117.184;2022-08-18T10:33:57;4;4;
47591;PMS5003;33317;33.356;-117.184;2022-08-18T10:36:37;3;3;
47591;PMS5003;33317;33.356;-117.184;2022-08-18T10:39:12;3;3;
47591;PMS5003;33317;33.356;-117.184;2022-08-18T10:41:49;2;2;
47591;PMS5003;33317;33.356;-117.184;2022-08-18T10:44:24;3;3;
47591;PMS5003;33317;33.356;-117.184;2022-08-18T10:46:53;1;1;
47591;PMS5003;33317;33.356;-117.184;2022-08-18T10:49:25;4;4;
47591;PMS5003;33317;33.356;-117.184;2022-08-18T10:51:59;8;6;
47591;PMS5003;33317;33.356;-117.184;2022-08-18T10:54:54;3;3;
47591;PMS5003;33317;33.356;-117.184;2022-08-18T10:57:56;3;3;
47591;PMS5003;33317;33.356;-117.184;2022-08-18T11:00:39;3;3;
47591;PMS5003;33317;33.356;-117.184;2022-08-18T11:03:16;3;3;
47591;PMS5003;33317;33.356;-117.184;2022-08-18T11:06:02;4;4;
47591;PMS5003;33317;33.356;-117.184;2022-08-18T11:08:45;4;3;
47591;PMS5003;33317;33.356;-117.184;2022-08-18T11:11:19;3;3;
47591;PMS5003;33317;33.356;-117.184;2022-08-18T11:13:51;2;2;
47591;PMS5003;33317;33.356;-117.184;2022-08-18T11:16:38;3;3;
47591;PMS5003;33317;33.356;-117.184;2022-08-18T11:19:17;3;3;
47591;PMS5003;33317;33.356;-117.184;2022-08-18T11:21:47;3;3;
47591;PMS5003;33317;33.356;-117.184;2022-08-18T11:24:18;5;5;
47591;PMS5003;33317;33.356;-117.184;2022-08-18T11:26:51;4;3;
47591;PMS5003;33317;33.356;-117.184;2022-08-18T11:29:23;3;3;
47591;PMS5003;33317;33.356;-117.184;2022-08-18T11:31:55;4;4;
47591;PMS5003;33317;33.356;-117.184;2022-08-18T11:34:33;4;3;
47591;PMS5003;33317;33.356;-117.184;2022-08-18T11:37:06;4;4;
47591;PMS5003;33317;33.356;-117.184;2022-08-18T11:39:47;1;1;
47591;PMS5003;33317;33.356;-117.184;2022-08-18T11:42:18;5;4;
47591;PMS5003;33317;33.356;-117.184;2022-08-18T11:44:53;2;2;
47591;PMS5003;33317;33.356;-117.184;2022-08-18T11:47:28;2;2;
47591;PMS5003;33317;33.356;-117.184;2022-08-18T11:49:57;4;4;
47591;PMS5003;33317;33.356;-117.184;2022-08-18T11:52:45;3;3;
47591;PMS5003;33317;33.356;-117.184;2022-08-18T11:55:19;2;2;
47591;PMS5003;33317;33.356;-117.184;2022-08-18T11:57:59;3;3;
47591;PMS5003;33317;33.356;-117.184;2022-08-18T12:01:00;3;3;
47591;PMS5003;33317;33.356;-117.184;2022-08-18T12:03:35;6;3;
47591;PMS5003;33317;33.356;-117.184;2022-08-18T12:06:11;4;4;
47591;PMS5003;33317;33.356;-117.184;2022-08-18T12:08:49;2;2;
47591;PMS5003;33317;33.356;-117.184;2022-08-18T12:11:22;2;2;
47591;PMS5003;33317;33.356;-117.184;2022-08-18T12:13:58;2;2;
47591;PMS5003;33317;33.356;-117.184;2022-08-18T12:16:32;2;2;
47591;PMS5003;33317;33.356;-117.184;2022-08-18T12:19:03;2;2;
47591;PMS5003;33317;33.356;-117.184;2022-08-18T12:21:33;3;3;
47591;PMS5003;33317;33.356;-117.184;2022-08-18T12:24:04;3;3;
47591;PMS5003;33317;33.356;-117.184;2022-08-18T12:26:36;3;3;
47591;PMS5003;33317;33.356;-117.184;2022-08-18T12:29:04;3;3;
47591;PMS5003;33317;33.356;-117.184;2022-08-18T12:31:33;4;4;
47591;PMS5003;33317;33.356;-117.184;2022-08-18T12:34:01;3;3;
47591;PMS5003;33317;33.356;-117.184;2022-08-18T12:36:30;3;3;
47591;PMS5003;33317;33.356;-117.184;2022-08-18T12:38:58;4;3;
47591;PMS5003;33317;33.356;-117.184;2022-08-18T12:41:26;2;2;
47591;PMS5003;33317;33.356;-117.184;2022-08-18T12:43:55;4;4;
47591;PMS5003;33317;33.356;-117.184;2022-08-18T12:46:23;6;3;
47591;PMS5003;33317;33.356;-117.184;2022-08-18T12:48:52;2;2;
47591;PMS5003;33317;33.356;-117.184;2022-08-18T12:51:20;2;2;
47591;PMS5003;33317;33.356;-117.184;2022-08-18T12:53:48;2;2;
47591;PMS5003;33317;33.356;-117.184;2022-08-18T12:56:20;4;4;
47591;PMS5003;33317;33.356;-117.184;2022-08-18T12:58:51;4;3;
47591;PMS5003;33317;33.356;-117.184;2022-08-18T13:01:19;2;2;
47591;PMS5003;33317;33.356;-117.184;2022-08-18T13:03:49;6;3;
47591;PMS5003;33317;33.356;-117.184;2022-08-18T13:06:18;3;3;
47591;PMS5003;33317;33.356;-117.184;2022-08-18T13:08:47;4;3;
47591;PMS5003;33317;33.356;-117.184;2022-08-18T13:11:15;4;4;
47591;PMS5003;33317;33.356;-117.184;2022-08-18T13:13:44;2;2;
47591;PMS5003;33317;33.356;-117.184;2022-08-18T13:16:13;3;3;
47591;PMS5003;33317;33.356;-117.184;2022-08-18T13:18:42;3;3;
47591;PMS5003;33317;33.356;-117.184;2022-08-18T13:21:12;2;2;
47591;PMS5003;33317;33.356;-117.184;2022-08-18T13:23:42;3;3;
47591;PMS5003;33317;33.356;-117.184;2022-08-18T13:26:12;2;2;
47591;PMS5003;33317;33.356;-117.184;2022-08-18T13:28:46;4;3;
47591;PMS5003;33317;33.356;-117.184;2022-08-18T13:31:14;3;3;
47591;PMS5003;33317;33.356;-117.184;2022-08-18T13:33:43;3;1;
47591;PMS5003;33317;33.356;-117.184;2022-08-18T13:36:11;7;5;
47591;PMS5003;33317;33.356;-117.184;2022-08-18T13:38:39;4;3;
47591;PMS5003;33317;33.356;-117.184;2022-08-18T13:41:09;4;4;
47591;PMS5003;33317;33.356;-117.184;2022-08-18T13:43:40;5;5;
47591;PMS5003;33317;33.356;-117.184;2022-08-18T13:46:11;3;3;
47591;PMS5003;33317;33.356;-117.184;2022-08-18T13:48:41;3;3;
47591;PMS5003;33317;33.356;-117.184;2022-08-18T13:51:13;2;2;
47591;PMS5003;33317;33.356;-117.184;2022-08-18T13:53:48;5;3;
47591;PMS5003;33317;33.356;-117.184;2022-08-18T13:56:16;2;2;
47591;PMS5003;33317;33.356;-117.184;2022-08-18T13:58:44;2;2;
47591;PMS5003;33317;33.356;-117.184;2022-08-18T14:01:13;4;4;
47591;PMS5003;33317;33.356;-117.184;2022-08-18T14:03:41;4;3;
47591;PMS5003;33317;33.356;-117.184;2022-08-18T14:06:10;3;3;
47591;PMS5003;33317;33.356;-117.184;2022-08-18T14:08:38;5;3;
47591;PMS5003;33317;33.356;-117.184;2022-08-18T14:11:11;2;2;
47591;PMS5003;33317;33.356;-117.184;2022-08-18T14:13:39;4;4;
47591;PMS5003;33317;33.356;-117.184;2022-08-18T14:16:08;4;4;
47591;PMS5003;33317;33.356;-117.184;2022-08-18T14:18:37;4;4;
47591;PMS5003;33317;33.356;-117.184;2022-08-18T14:21:05;4;4;
47591;PMS5003;33317;33.356;-117.184;2022-08-18T14:23:34;5;5;
47591;PMS5003;33317;33.356;-117.184;2022-08-18T14:26:02;3;3;
47591;PMS5003;33317;33.356;-117.184;2022-08-18T14:28:31;4;4;
47591;PMS5003;33317;33.356;-117.184;2022-08-18T14:31:01;6;5;
47591;PMS5003;33317;33.356;-117.184;2022-08-18T14:33:30;3;3;
47591;PMS5003;33317;33.356;-117.184;2022-08-18T14:35:59;7;6;
47591;PMS5003;33317;33.356;-117.184;2022-08-18T14:38:28;4;4;
47591;PMS5003;33317;33.356;-117.184;2022-08-18T14:40:56;3;1;
47591;PMS5003;33317;33.356;-117.184;2022-08-18T14:43:28;4;4;
47591;PMS5003;33317;33.356;-117.184;2022-08-18T14:45:56;5;4;
47591;PMS5003;33317;33.356;-117.184;2022-08-18T14:48:25;3;3;
47591;PMS5003;33317;33.356;-117.184;2022-08-18T14:50:54;6;5;
47591;PMS5003;33317;33.356;-117.184;2022-08-18T14:53:25;3;3;
47591;PMS5003;33317;33.356;-117.184;2022-08-18T14:55:55;4;4;
47591;PMS5003;33317;33.356;-117.184;2022-08-18T14:58:25;3;3;
47591;PMS5003;33317;33.356;-117.184;2022-08-18T15:00:55;3;3;
47591;PMS5003;33317;33.356;-117.184;2022-08-18T15:03:25;5;5;
47591;PMS5003;33317;33.356;-117.184;2022-08-18T15:05:56;6;6;
47591;PMS5003;33317;33.356;-117.184;2022-08-18T15:08:26;5;5;
47591;PMS5003;33317;33.356;-117.184;2022-08-18T15:10:55;5;5;
47591;PMS5003;33317;33.356;-117.184;2022-08-18T15:13:24;5;5;
47591;PMS5003;33317;33.356;-117.184;2022-08-18T15:15:53;4;4;
47591;PMS5003;33317;33.356;-117.184;2022-08-18T15:18:21;3;3;
47591;PMS5003;33317;33.356;-117.184;2022-08-18T15:20:50;5;5;
47591;PMS5003;33317;33.356;-117.184;2022-08-18T15:23:18;4;4;
47591;PMS5003;33317;33.356;-117.184;2022-08-18T15:25:47;3;3;
47591;PMS5003;33317;33.356;-117.184;2022-08-18T15:28:17;5;5;
47591;PMS5003;33317;33.356;-117.184;2022-08-18T15:30:48;4;4;
47591;PMS5003;33317;33.356;-117.184;2022-08-18T15:33:17;2;2;
47591;PMS5003;33317;33.356;-117.184;2022-08-18T15:35:46;4;4;
47591;PMS5003;33317;33.356;-117.184;2022-08-18T15:38:17;4;4;
47591;PMS5003;33317;33.356;-117.184;2022-08-18T15:40:47;2;2;
47591;PMS5003;33317;33.356;-117.184;2022-08-18T15:43:19;6;6;
47591;PMS5003;33317;33.356;-117.184;2022-08-18T15:45:48;3;3;
47591;PMS5003;33317;33.356;-117.184;2022-08-18T15:48:17;5;5;
47591;PMS5003;33317;33.356;-117.184;2022-08-18T15:50:47;5;5;
47591;PMS5003;33317;33.356;-117.184;2022-08-18T15:53:19;5;4;
47591;PMS5003;33317;33.356;-117.184;2022-08-18T15:55:50;4;3;
47591;PMS5003;33317;33.356;-117.184;2022-08-18T15:58:19;5;5;
47591;PMS5003;33317;33.356;-117.184;2022-08-18T16:00:47;3;3;
47591;PMS5003;33317;33.356;-117.184;2022-08-18T16:03:15;1;1;
47591;PMS5003;33317;33.356;-117.184;2022-08-18T16:05:46;2;2;
47591;PMS5003;33317;33.356;-117.184;2022-08-18T16:08:17;4;3;
47591;PMS5003;33317;33.356;-117.184;2022-08-18T16:10:47;5;5;
47591;PMS5003;33317;33.356;-117.184;2022-08-18T16:13:15;4;4;
47591;PMS5003;33317;33.356;-117.184;2022-08-18T16:15:43;5;5;
47591;PMS5003;33317;33.356;-117.184;2022-08-18T16:18:13;4;4;
47591;PMS5003;33317;33.356;-117.184;2022-08-18T16:20:44;4;4;
47591;PMS5003;33317;33.356;-117.184;2022-08-18T16:23:12;5;4;
47591;PMS5003;33317;33.356;-117.184;2022-08-18T16:25:41;5;4;
47591;PMS5003;33317;33.356;-117.184;2022-08-18T16:28:10;3;3;
47591;PMS5003;33317;33.356;-117.184;2022-08-18T16:30:39;3;3;
47591;PMS5003;33317;33.356;-117.184;2022-08-18T16:33:08;4;4;
47591;PMS5003;33317;33.356;-117.184;2022-08-18T16:35:36;3;3;
47591;PMS5003;33317;33.356;-117.184;2022-08-18T16:38:05;2;2;
47591;PMS5003;33317;33.356;-117.184;2022-08-18T16:40:35;4;3;
47591;PMS5003;33317;33.356;-117.184;2022-08-18T16:43:04;3;3;
47591;PMS5003;33317;33.356;-117.184;2022-08-18T16:45:33;1;1;
47591;PMS5003;33317;33.356;-117.184;2022-08-18T16:48:03;2;2;